Current Weather Conditions: station 46145

sailwx.info

Wind from 150 at 9 knots gusting 13

Wave height 1.8 meters (5 feet), 14 second period

Air temperature 6.5° C
Water temperature 6.4° C

Last reported at 2017-Mar-30 20:00 UTC.
Time now 2017-Mar-30 22:28 UTC

Location: N 54°24' W 132°24'.
View on Google Maps.

See reports from other nearby stations

  
Tides and Currents Weather Stations Pressure Air Temp Water Temp Dewpoint Dewpoint Depression Visibility Wind Speed Wind Dir Waves Ship Positions
date/time (UTC)wind fromknots sea level pressurealtimeterstation pressurevisibilityair tempwater tempwave heightnotes
2017-Mar-30 20:00 150 9 gusting 13 6.5 6.4 1.8
2017-Mar-30 19:00 150 9 gusting 11 6.2 6.3 1.8
2017-Mar-30 18:00 180 11 gusting 11 5.9 6.5 1.8
2017-Mar-30 17:00 180 9 gusting 11 5.6 6.5 1.6
2017-Mar-30 16:00 180 7 gusting 9 5.6 6.5 1.7
2017-Mar-30 15:00 200 5 gusting 7 5.8 6.3 1.9
2017-Mar-30 14:00 230 9 gusting 11 5.7 6.2 1.6
2017-Mar-30 13:00 250 7 gusting 9 6.0 6.2 1.8
2017-Mar-30 12:00 240 5 gusting 13 5.3 6.3 1.5
2017-Mar-30 11:00 210 7 gusting 9 5.8 6.4 1.2
2017-Mar-30 10:00 180 7 gusting 9 6.0 6.5 1.4
2017-Mar-30 09:00 240 5 gusting 7 6.4 6.4 1.3
2017-Mar-30 08:00 250 13 gusting 15 6.4 6.5 1.4
2017-Mar-30 07:00 260 11 gusting 11 6.5 6.5 1.3
2017-Mar-30 05:00 270 11 gusting 13 6.3 6.5 1.9
2017-Mar-30 04:00 280 9 gusting 11 6.3 6.5 1.8
2017-Mar-30 03:00 280 9 gusting 11 6.2 6.5 1.7
2017-Mar-30 02:00 290 11 gusting 13 6.2 6.6 1.5
2017-Mar-30 01:00 290 13 gusting 15 6.2 6.4 1.6
2017-Mar-30 00:00 290 11 gusting 15 6.3 7.0 1.4
2017-Mar-29 23:00 290 11 gusting 13 6.2 6.8 1.5
2017-Mar-29 22:00 300 9 gusting 11 6.1 6.9 1.5
2017-Mar-29 21:00 300 9 gusting 11 6.2 6.7 1.6
2017-Mar-29 20:00 310 3 gusting 5 6.2 6.7 1.6
2017-Mar-29 19:00 280 3 gusting 5 6.1 6.6 1.8
2017-Mar-29 18:00 260 1 gusting 3 6.2 6.6 1.6
2017-Mar-29 17:00 230 6.2 6.6 1.8
2017-Mar-29 16:00 230 1 gusting 1 6.0 6.6 1.5
2017-Mar-29 15:00 130 3 gusting 3 6.0 6.3 1.4
2017-Mar-29 14:00 130 5 gusting 7 6.1 6.6 1.6
2017-Mar-29 13:00 120 1 gusting 3 6.1 6.6 1.7
2017-Mar-29 12:00 150 3 gusting 3 6.2 6.3 1.4
2017-Mar-29 11:00 150 3 gusting 5 6.2 6.3 1.6
2017-Mar-29 10:00 130 3 gusting 3 6.3 6.6 1.6
2017-Mar-29 09:00 130 1 gusting 3 6.3 6.6 1.7
2017-Mar-29 08:00 170 3 gusting 3 6.3 6.6 2.1
2017-Mar-29 07:00 140 3 gusting 5 6.3 6.3 2.3
2017-Mar-29 06:00 140 1 gusting 3 6.4 6.4 2.3
2017-Mar-29 05:00 120 1 gusting 3 6.6 6.4 2.2
2017-Mar-29 04:00 230 3 gusting 5 6.7 6.8 2.2
2017-Mar-29 03:00 270 1 gusting 3 6.5 6.4 2.0
2017-Mar-29 02:00 100 1 gusting 3 6.5 6.5 1.8
2017-Mar-29 01:00 300 1 gusting 3 6.5 6.7 1.8
2017-Mar-29 00:00 230 1 gusting 3 6.6 7.0 1.6
2017-Mar-28 23:00 130 5 gusting 7 6.2 6.8 1.6
2017-Mar-28 22:00 130 7 gusting 9 6.2 6.9 1.8